createdAt,value
2023-02-13T00:02:11.888Z,18.45
2023-02-13T00:04:42.981Z,17.07
2023-02-13T00:07:14.151Z,18.52
2023-02-13T00:09:43.781Z,19.90
2023-02-13T00:12:13.357Z,20.23
2023-02-13T00:14:42.792Z,20.77
2023-02-13T00:17:12.301Z,22.02
2023-02-13T00:19:41.801Z,24.57
2023-02-13T00:22:11.820Z,25.05
2023-02-13T00:24:41.314Z,24.90
2023-02-13T00:27:10.867Z,24.40
2023-02-13T00:29:40.290Z,26.12
2023-02-13T00:32:10.571Z,26.75
2023-02-13T00:34:40.281Z,27.65
2023-02-13T00:37:10.069Z,27.67
2023-02-13T00:39:39.500Z,29.13
2023-02-13T00:42:09.873Z,27.50
2023-02-13T00:44:39.310Z,26.75
2023-02-13T00:47:08.728Z,29.07
2023-02-13T00:49:38.225Z,34.75
2023-02-13T00:52:07.753Z,37.30
2023-02-13T00:54:37.191Z,36.43
2023-02-13T00:57:08.479Z,35.40
2023-02-13T00:59:37.910Z,34.38
2023-02-13T01:02:07.405Z,32.63
2023-02-13T01:04:37.616Z,32.55
2023-02-13T01:07:07.055Z,32.17
2023-02-13T01:09:37.648Z,33.20
2023-02-13T01:12:08.315Z,32.00
2023-02-13T01:14:38.543Z,32.85
2023-02-13T01:17:08.100Z,34.40
2023-02-13T01:19:37.569Z,32.15
2023-02-13T01:22:08.636Z,34.55
2023-02-13T01:24:38.063Z,32.80
2023-02-13T01:27:07.494Z,33.95
2023-02-13T01:29:37.197Z,34.08
2023-02-13T01:32:06.851Z,31.35
2023-02-13T01:34:36.378Z,31.60
2023-02-13T01:37:06.471Z,31.75
2023-02-13T01:39:35.983Z,31.33
2023-02-13T01:42:05.819Z,31.02
2023-02-13T01:44:50.315Z,33.02
2023-02-13T01:47:22.992Z,33.80
2023-02-13T01:49:59.234Z,32.17
2023-02-13T01:52:30.228Z,34.43
2023-02-13T01:54:59.809Z,35.10
2023-02-13T01:57:31.912Z,32.93
2023-02-13T02:00:17.170Z,31.77
2023-02-13T02:02:57.874Z,30.17
2023-02-13T02:05:30.731Z,29.92
2023-02-13T02:08:02.735Z,32.23
2023-02-13T02:10:33.571Z,30.00
2023-02-13T02:13:14.529Z,30.70
2023-02-13T02:15:45.026Z,29.65
2023-02-13T02:18:19.453Z,29.23
2023-02-13T02:21:11.630Z,30.00
2023-02-13T02:24:05.636Z,28.23
2023-02-13T02:26:53.333Z,28.40
2023-02-13T02:29:54.944Z,30.05
2023-02-13T02:32:39.241Z,28.38
2023-02-13T02:35:30.650Z,28.57
2023-02-13T02:38:17.770Z,28.23
2023-02-13T02:41:06.994Z,29.72
2023-02-13T02:43:43.101Z,28.83
2023-02-13T02:46:18.733Z,28.52
2023-02-13T02:49:27.418Z,28.62
2023-02-13T02:52:05.901Z,29.52
2023-02-13T02:55:09.646Z,27.17
2023-02-13T02:58:04.661Z,28.45
2023-02-13T03:00:56.249Z,27.15
2023-02-13T03:03:47.804Z,28.23
2023-02-13T03:06:21.359Z,28.87
2023-02-13T03:09:17.535Z,26.87
2023-02-13T03:12:07.799Z,26.70
2023-02-13T03:14:39.248Z,26.33
2023-02-13T03:17:29.370Z,27.48
2023-02-13T03:20:35.361Z,28.45
2023-02-13T03:25:58.689Z,27.50
2023-02-13T03:29:01.204Z,25.82
2023-02-13T03:31:39.546Z,27.33
2023-02-13T03:34:20.853Z,25.92
2023-02-13T03:37:17.536Z,27.50
2023-02-13T03:40:10.703Z,26.85
2023-02-13T03:42:49.332Z,27.55
2023-02-13T03:45:45.711Z,26.75
2023-02-13T03:48:36.113Z,27.25
2023-02-13T03:51:08.383Z,26.17
2023-02-13T03:53:40.932Z,27.95
2023-02-13T03:56:30.861Z,25.27
2023-02-13T03:59:18.724Z,25.65
2023-02-13T04:02:00.209Z,27.05
2023-02-13T04:04:41.775Z,26.37
2023-02-13T04:07:15.906Z,26.15
2023-02-13T04:09:45.521Z,26.85
2023-02-13T04:12:23.814Z,26.20
2023-02-13T04:15:02.639Z,25.32
2023-02-13T04:17:44.158Z,26.30
2023-02-13T04:20:14.579Z,26.15
2023-02-13T04:22:49.743Z,26.45
2023-02-13T04:25:21.092Z,26.35
2023-02-13T04:27:50.584Z,26.48
2023-02-13T04:30:20.149Z,25.97
2023-02-13T04:32:49.613Z,26.10
2023-02-13T04:35:19.219Z,26.02
2023-02-13T04:37:48.787Z,25.90
2023-02-13T04:40:19.401Z,24.67
2023-02-13T04:42:50.860Z,26.48
2023-02-13T04:45:20.905Z,25.87
2023-02-13T04:47:53.896Z,25.70
2023-02-13T04:50:24.585Z,26.87
2023-02-13T04:52:59.627Z,28.00
2023-02-13T04:55:31.236Z,27.37
2023-02-13T04:58:01.402Z,27.05
2023-02-13T05:00:31.876Z,26.45
2023-02-13T05:03:09.890Z,26.90
2023-02-13T05:05:40.700Z,26.17
2023-02-13T05:08:10.602Z,26.60
2023-02-13T05:10:40.113Z,26.45
2023-02-13T05:13:09.641Z,25.05
2023-02-13T05:15:39.124Z,23.60
2023-02-13T05:18:08.619Z,25.48
2023-02-13T05:20:38.078Z,26.10
2023-02-13T05:23:24.013Z,25.88
2023-02-13T05:25:54.914Z,24.67
2023-02-13T05:28:42.841Z,25.57
2023-02-13T05:31:13.898Z,25.72
2023-02-13T05:33:44.623Z,24.90
2023-02-13T05:36:14.900Z,26.33
2023-02-13T05:38:44.323Z,25.43
2023-02-13T05:41:13.766Z,25.17
2023-02-13T05:43:43.259Z,24.82
2023-02-13T05:46:12.723Z,25.60
2023-02-13T05:48:42.184Z,24.92
2023-02-13T05:51:11.747Z,26.12
2023-02-13T05:53:41.241Z,26.20
2023-02-13T05:56:10.678Z,25.08
2023-02-13T05:58:40.215Z,27.32
2023-02-13T06:01:09.709Z,26.10
2023-02-13T06:03:40.678Z,26.05
2023-02-13T06:06:11.765Z,27.62
2023-02-13T06:08:41.904Z,26.93
2023-02-13T06:11:24.246Z,25.75
2023-02-13T06:13:53.801Z,27.45
2023-02-13T06:16:23.717Z,26.02
2023-02-13T06:18:53.296Z,25.20
2023-02-13T06:21:23.108Z,24.10
2023-02-13T06:23:53.884Z,27.67
2023-02-13T06:26:24.910Z,29.87
2023-02-13T06:28:54.345Z,29.47
2023-02-13T06:31:23.988Z,31.95
2023-02-13T06:33:53.589Z,29.07
2023-02-13T06:36:23.007Z,30.52
2023-02-13T06:38:52.512Z,30.37
2023-02-13T06:41:23.232Z,31.62
2023-02-13T06:43:52.741Z,35.30
2023-02-13T06:46:22.289Z,32.40
2023-02-13T06:48:51.870Z,32.25
2023-02-13T06:51:22.033Z,31.77
2023-02-13T06:53:51.470Z,32.90
2023-02-13T06:56:21.538Z,31.57
2023-02-13T06:58:50.964Z,31.03
2023-02-13T07:01:20.530Z,30.48
2023-02-13T07:03:50.713Z,30.50
2023-02-13T07:06:21.194Z,29.60
2023-02-13T07:08:52.261Z,28.80
2023-02-13T07:11:24.141Z,27.27
2023-02-13T07:13:53.719Z,27.37
2023-02-13T07:16:23.439Z,28.75
2023-02-13T07:18:53.101Z,31.00
2023-02-13T07:21:22.528Z,30.80
2023-02-13T07:23:55.382Z,26.50
2023-02-13T07:26:26.464Z,26.45
2023-02-13T07:29:10.263Z,26.83
2023-02-13T07:31:28.063Z,25.43
2023-02-13T07:33:57.860Z,24.05
2023-02-13T07:36:28.535Z,25.10
2023-02-13T07:38:58.298Z,28.30
2023-02-13T07:41:28.108Z,24.30
2023-02-13T07:43:57.603Z,24.87
2023-02-13T07:46:27.461Z,23.20
2023-02-13T07:48:56.857Z,23.95
2023-02-13T07:51:26.478Z,26.05
2023-02-13T07:53:57.658Z,23.55
2023-02-13T07:56:28.074Z,24.10
2023-02-13T07:58:57.542Z,23.77
2023-02-13T08:01:27.071Z,25.70
2023-02-13T08:03:56.669Z,25.02
2023-02-13T08:06:26.587Z,24.20
2023-02-13T08:08:57.712Z,23.77
2023-02-13T08:11:48.118Z,25.60
2023-02-13T08:14:17.543Z,26.90
2023-02-13T08:16:47.472Z,26.97
2023-02-13T08:19:17.389Z,24.37
2023-02-13T08:21:47.588Z,26.00
2023-02-13T08:24:19.464Z,22.85
2023-02-13T08:26:50.226Z,23.73
2023-02-13T08:29:20.728Z,23.50
2023-02-13T08:31:50.226Z,25.52
2023-02-13T08:34:19.688Z,25.52
2023-02-13T08:36:49.182Z,24.37
2023-02-13T08:39:18.613Z,22.48
2023-02-13T08:41:48.079Z,21.77
2023-02-13T08:44:18.485Z,22.82
2023-02-13T08:46:47.920Z,22.07
2023-02-13T08:49:17.401Z,23.98
2023-02-13T08:51:47.117Z,23.38
2023-02-13T08:54:17.178Z,23.87
2023-02-13T08:56:46.687Z,24.50
2023-02-13T08:59:16.829Z,26.17
2023-02-13T09:01:46.328Z,27.80
2023-02-13T09:04:18.921Z,30.37
2023-02-13T09:06:48.342Z,28.05
2023-02-13T09:09:17.846Z,26.45
2023-02-13T09:11:47.635Z,25.90
2023-02-13T09:14:17.120Z,24.00
2023-02-13T09:16:47.560Z,22.77
2023-02-13T09:19:17.477Z,21.95
2023-02-13T09:21:46.971Z,22.77
2023-02-13T09:24:16.463Z,22.00
2023-02-13T09:26:46.107Z,23.18
2023-02-13T09:29:15.525Z,20.85
2023-02-13T09:31:46.147Z,24.12
2023-02-13T09:34:16.841Z,23.73
2023-02-13T09:36:46.284Z,22.15
2023-02-13T09:39:15.881Z,21.70
2023-02-13T09:41:48.196Z,21.10
2023-02-13T09:44:35.375Z,19.70
2023-02-13T09:47:23.979Z,20.27
2023-02-13T09:49:56.542Z,22.65
2023-02-13T09:52:29.460Z,22.62
2023-02-13T09:54:59.250Z,20.85
2023-02-13T09:57:37.870Z,21.27
2023-02-13T10:00:13.461Z,22.00
2023-02-13T10:02:54.920Z,22.10
2023-02-13T10:05:46.465Z,20.90
2023-02-13T10:08:24.940Z,22.40
2023-02-13T10:11:00.735Z,21.17
2023-02-13T10:14:00.788Z,20.55
2023-02-13T10:16:48.718Z,21.42
2023-02-13T10:19:21.253Z,20.35
2023-02-13T10:21:56.435Z,19.52
2023-02-13T10:24:38.274Z,20.40
2023-02-13T10:27:31.899Z,19.42
2023-02-13T10:30:11.883Z,17.30
2023-02-13T10:33:22.769Z,15.67
2023-02-13T10:36:15.233Z,12.18
2023-02-13T10:38:59.857Z,12.05
2023-02-13T10:41:59.455Z,11.57
2023-02-13T10:44:47.498Z,10.75
2023-02-13T10:47:37.729Z,11.20
2023-02-13T10:50:16.771Z,10.68
2023-02-13T10:52:58.425Z,10.70
2023-02-13T10:55:49.076Z,10.38
2023-02-13T10:58:44.040Z,10.78
2023-02-13T11:01:22.818Z,11.28
2023-02-13T11:03:55.496Z,10.85
2023-02-13T11:06:26.669Z,10.18
2023-02-13T11:08:56.167Z,9.75
2023-02-13T11:11:39.619Z,10.70
2023-02-13T11:14:21.115Z,10.32
2023-02-13T11:17:05.989Z,10.08
2023-02-13T11:19:51.496Z,10.80
2023-02-13T11:22:39.437Z,9.93
2023-02-13T11:25:23.904Z,9.08
2023-02-13T11:27:56.440Z,9.80
2023-02-13T11:30:31.537Z,10.10
2023-02-13T11:33:04.342Z,10.63
2023-02-13T11:35:36.472Z,10.30
2023-02-13T11:38:22.289Z,9.60
2023-02-13T11:40:54.781Z,10.13
2023-02-13T11:43:35.051Z,9.90
2023-02-13T11:46:08.205Z,9.10
2023-02-13T11:48:37.843Z,9.63
2023-02-13T11:51:08.284Z,10.85
2023-02-13T11:53:41.827Z,11.20
2023-02-13T11:56:18.545Z,9.38
2023-02-13T11:58:49.792Z,9.48
2023-02-13T12:01:25.306Z,9.63
2023-02-13T12:04:01.390Z,9.95
2023-02-13T12:06:35.731Z,11.15
2023-02-13T12:09:16.085Z,11.15
2023-02-13T12:11:51.482Z,12.43
2023-02-13T12:14:27.223Z,10.60
2023-02-13T12:17:02.859Z,10.63
2023-02-13T12:19:44.718Z,10.80
2023-02-13T12:22:29.392Z,9.98
2023-02-13T12:25:22.226Z,9.90
2023-02-13T12:28:12.674Z,9.88
2023-02-13T12:31:02.872Z,11.08
2023-02-13T12:33:58.007Z,11.03
2023-02-13T12:36:50.453Z,10.40
2023-02-13T12:39:28.812Z,9.25
2023-02-13T12:42:16.585Z,10.08
2023-02-13T12:45:19.201Z,10.55
2023-02-13T12:47:54.868Z,10.48
2023-02-13T12:50:42.415Z,10.65
2023-02-13T12:53:17.767Z,10.10
2023-02-13T12:55:58.908Z,9.68
2023-02-13T12:58:42.877Z,10.08
2023-02-13T13:01:35.293Z,9.30
2023-02-13T13:04:41.207Z,8.98
2023-02-13T13:07:45.588Z,8.73
2023-02-13T13:10:28.343Z,8.35
2023-02-13T13:13:12.997Z,7.57
2023-02-13T13:15:45.567Z,8.25
2023-02-13T13:18:38.972Z,8.88
2023-02-13T13:23:46.516Z,9.75
2023-02-13T13:26:41.338Z,9.00
2023-02-13T13:29:19.574Z,8.55
2023-02-13T13:31:54.914Z,8.55
2023-02-13T13:34:27.318Z,8.35
2023-02-13T13:37:05.972Z,8.33
2023-02-13T13:39:44.457Z,8.20
2023-02-13T13:42:20.696Z,8.60
2023-02-13T13:44:53.253Z,9.95
2023-02-13T13:47:37.645Z,10.88
2023-02-13T13:50:09.784Z,10.03
2023-02-13T13:52:39.335Z,9.53
2023-02-13T13:55:11.839Z,10.30
2023-02-13T13:58:02.258Z,9.73
2023-02-13T14:00:32.252Z,9.20
2023-02-13T14:03:26.868Z,9.88
2023-02-13T14:06:02.841Z,9.68
2023-02-13T14:08:44.784Z,9.68
2023-02-13T14:11:35.590Z,11.12
2023-02-13T14:14:30.503Z,10.82
2023-02-13T14:17:03.274Z,10.78
2023-02-13T14:19:40.608Z,11.68
2023-02-13T14:22:29.250Z,11.35
2023-02-13T14:25:05.691Z,11.83
2023-02-13T14:27:38.259Z,11.35
2023-02-13T14:30:28.977Z,10.73
2023-02-13T14:33:00.434Z,12.20
2023-02-13T14:35:33.114Z,11.53
2023-02-13T14:38:07.742Z,11.73
2023-02-13T14:40:52.132Z,11.68
2023-02-13T14:43:24.644Z,11.78
2023-02-13T14:46:01.105Z,12.95
2023-02-13T14:48:39.468Z,12.65
2023-02-13T14:51:12.397Z,13.50
2023-02-13T14:53:48.107Z,12.45
2023-02-13T14:56:22.535Z,12.80
2023-02-13T14:58:56.896Z,12.95
2023-02-13T15:01:38.900Z,13.05
2023-02-13T15:04:17.575Z,12.28
2023-02-13T15:06:50.112Z,11.83
2023-02-13T15:09:38.926Z,12.05
2023-02-13T15:12:37.182Z,11.40
2023-02-13T15:15:18.269Z,10.50
2023-02-13T15:17:51.336Z,10.95
2023-02-13T15:20:26.846Z,11.48
2023-02-13T15:22:59.021Z,11.88
2023-02-13T15:25:34.743Z,11.33
2023-02-13T15:28:07.601Z,12.05
2023-02-13T15:30:39.247Z,11.30
2023-02-13T15:33:20.945Z,11.22
2023-02-13T15:36:02.253Z,11.78
2023-02-13T15:38:34.165Z,12.10
2023-02-13T15:41:06.672Z,12.50
2023-02-13T15:43:44.949Z,10.18
2023-02-13T15:46:23.235Z,10.48
2023-02-13T15:48:55.555Z,9.83
2023-02-13T15:51:28.397Z,9.80
2023-02-13T15:54:03.897Z,11.30
2023-02-13T15:56:36.276Z,9.80
2023-02-13T15:59:06.355Z,10.58
2023-02-13T16:01:36.405Z,9.93
2023-02-13T16:04:08.867Z,11.33
2023-02-13T16:06:39.335Z,10.38
2023-02-13T16:09:10.625Z,8.90
2023-02-13T16:11:42.113Z,8.80
2023-02-13T16:14:25.517Z,7.90
2023-02-13T16:17:03.807Z,9.15
2023-02-13T16:19:37.001Z,8.95
2023-02-13T16:22:18.184Z,8.23
2023-02-13T16:24:51.113Z,8.28
2023-02-13T16:27:23.614Z,8.98
2023-02-13T16:29:56.312Z,8.65
2023-02-13T16:32:34.663Z,8.78
2023-02-13T16:35:31.792Z,8.45
2023-02-13T16:38:03.235Z,8.20
2023-02-13T16:40:41.847Z,8.20
2023-02-13T16:43:45.072Z,7.97
2023-02-13T16:46:37.603Z,8.43
2023-02-13T16:49:13.242Z,8.17
2023-02-13T16:51:53.931Z,7.90
2023-02-13T16:54:48.799Z,7.10
2023-02-13T16:57:24.988Z,8.33
2023-02-13T17:00:19.433Z,8.30
2023-02-13T17:02:51.981Z,8.05
2023-02-13T17:05:27.092Z,9.10
2023-02-13T17:08:00.035Z,8.63
2023-02-13T17:10:35.834Z,8.35
2023-02-13T17:13:14.663Z,8.40
2023-02-13T17:15:46.980Z,8.58
2023-02-13T17:18:18.061Z,9.35
2023-02-13T17:20:49.716Z,9.55
2023-02-13T17:23:22.663Z,9.43
2023-02-13T17:28:26.476Z,10.08
2023-02-13T17:30:59.293Z,9.27
2023-02-13T17:35:59.322Z,10.13
2023-02-13T17:38:28.760Z,10.13
2023-02-13T17:40:59.262Z,11.18
2023-02-13T17:43:31.356Z,11.15
2023-02-13T17:46:01.645Z,10.93
2023-02-13T17:48:31.265Z,11.12
2023-02-13T17:51:01.118Z,11.45
2023-02-13T17:53:33.081Z,11.53
2023-02-13T17:56:02.518Z,11.03
2023-02-13T17:58:31.989Z,12.80
2023-02-13T18:01:01.869Z,13.20
2023-02-13T18:03:32.662Z,12.35
2023-02-13T18:06:02.087Z,13.25
2023-02-13T18:08:32.252Z,14.03
2023-02-13T18:11:01.691Z,13.00
2023-02-13T18:13:31.150Z,14.95
2023-02-13T18:16:00.951Z,14.58
2023-02-13T18:18:30.354Z,14.13
2023-02-13T18:21:00.025Z,13.62
2023-02-13T18:23:29.647Z,14.05
2023-02-13T18:26:08.591Z,14.93
2023-02-13T18:28:40.064Z,16.27
2023-02-13T18:31:11.179Z,15.08
2023-02-13T18:33:40.881Z,15.72
2023-02-13T18:36:10.509Z,15.15
2023-02-13T18:38:40.022Z,14.83
2023-02-13T18:41:09.680Z,14.70
2023-02-13T18:43:39.193Z,16.87
2023-02-13T18:46:08.702Z,16.00
2023-02-13T18:48:38.482Z,15.43
2023-02-13T18:51:07.920Z,16.48
2023-02-13T18:53:37.426Z,16.45
2023-02-13T18:56:10.412Z,16.80
2023-02-13T19:01:11.328Z,15.55
2023-02-13T19:03:42.238Z,16.83
2023-02-13T19:06:14.117Z,15.98
2023-02-13T19:08:43.544Z,17.87
2023-02-13T19:11:20.026Z,16.20
2023-02-13T19:13:50.016Z,18.00
2023-02-13T19:16:21.087Z,18.02
2023-02-13T19:18:54.023Z,16.30
2023-02-13T19:21:26.540Z,15.85
2023-02-13T19:23:57.070Z,16.65
2023-02-13T19:26:27.889Z,17.42
2023-02-13T19:28:59.020Z,15.50
2023-02-13T19:31:31.141Z,16.17
2023-02-13T19:39:06.794Z,15.40
2023-02-13T19:41:36.360Z,16.85
2023-02-13T19:44:06.109Z,15.90
2023-02-13T19:46:36.761Z,14.93
2023-02-13T19:49:07.062Z,16.32
2023-02-13T19:51:38.444Z,16.60
2023-02-13T19:54:11.091Z,15.72
2023-02-13T19:56:43.836Z,15.45
2023-02-13T19:59:14.673Z,15.32
2023-02-13T20:01:46.095Z,16.62
2023-02-13T20:04:15.538Z,15.13
2023-02-13T20:06:45.013Z,16.62
2023-02-13T20:09:15.361Z,14.90
2023-02-13T20:11:47.784Z,16.00
2023-02-13T20:14:17.390Z,15.38
2023-02-13T20:16:46.822Z,15.60
2023-02-13T20:19:16.251Z,15.63
2023-02-13T20:21:46.013Z,15.98
2023-02-13T20:24:15.797Z,15.65
2023-02-13T20:26:45.790Z,14.90
2023-02-13T20:29:16.336Z,16.10
2023-02-13T20:31:45.903Z,17.23
2023-02-13T20:34:15.657Z,15.50
2023-02-13T20:36:46.085Z,16.30
2023-02-13T20:39:15.670Z,15.38
2023-02-13T20:41:46.797Z,15.60
2023-02-13T20:44:17.412Z,16.45
2023-02-13T20:46:47.979Z,15.38
2023-02-13T20:49:19.110Z,15.80
2023-02-13T20:51:50.204Z,16.40
2023-02-13T20:54:19.867Z,16.23
2023-02-13T20:56:49.296Z,15.93
2023-02-13T20:59:20.687Z,16.43
2023-02-13T21:01:50.164Z,15.58
2023-02-13T21:04:21.373Z,15.13
2023-02-13T21:06:51.212Z,18.50
2023-02-13T21:09:20.634Z,17.57
2023-02-13T21:11:50.071Z,16.82
2023-02-13T21:14:20.341Z,16.75
2023-02-13T21:16:49.821Z,16.32
2023-02-13T21:19:21.078Z,17.10
2023-02-13T21:21:50.917Z,16.45
2023-02-13T21:24:23.112Z,15.50
2023-02-13T21:26:54.894Z,15.10
2023-02-13T21:29:24.825Z,16.48
2023-02-13T21:31:54.358Z,15.40
2023-02-13T21:34:23.822Z,15.83
2023-02-13T21:36:53.331Z,17.37
2023-02-13T21:39:22.827Z,16.20
2023-02-13T21:41:52.375Z,16.50
2023-02-13T21:44:21.883Z,16.87
2023-02-13T21:46:51.395Z,15.58
2023-02-13T21:49:21.090Z,17.02
2023-02-13T21:51:51.198Z,17.13
2023-02-13T21:54:20.614Z,17.23
2023-02-13T21:56:50.535Z,15.32
2023-02-13T21:59:20.116Z,16.05
2023-02-13T22:01:51.717Z,15.08
2023-02-13T22:04:21.718Z,16.17
2023-02-13T22:06:54.194Z,17.00
2023-02-13T22:09:26.321Z,16.30
2023-02-13T22:11:55.821Z,16.37
2023-02-13T22:14:25.255Z,15.25
2023-02-13T22:16:54.750Z,16.00
2023-02-13T22:19:24.705Z,15.15
2023-02-13T22:21:54.150Z,14.87
2023-02-13T22:24:23.784Z,15.68
2023-02-13T22:26:53.518Z,13.70
2023-02-13T22:29:24.622Z,15.88
2023-02-13T22:31:57.177Z,16.32
2023-02-13T22:34:27.702Z,15.83
2023-02-13T22:36:57.473Z,15.93
2023-02-13T22:39:26.970Z,15.60
2023-02-13T22:41:59.286Z,15.18
2023-02-13T22:44:28.990Z,15.98
2023-02-13T22:46:58.416Z,15.10
2023-02-13T22:49:28.049Z,16.42
2023-02-13T22:51:57.476Z,15.00
2023-02-13T22:54:26.899Z,15.18
2023-02-13T22:56:56.377Z,15.95
2023-02-13T22:59:25.934Z,13.35
2023-02-13T23:01:55.448Z,15.13
2023-02-13T23:04:26.629Z,15.58
2023-02-13T23:06:56.295Z,14.67
2023-02-13T23:09:27.064Z,13.18
2023-02-13T23:12:14.541Z,15.80
2023-02-13T23:14:44.232Z,14.85
2023-02-13T23:17:32.935Z,14.90
2023-02-13T23:20:02.551Z,14.70
2023-02-13T23:22:32.138Z,16.00
2023-02-13T23:25:04.134Z,15.00
2023-02-13T23:27:37.508Z,15.60
2023-02-13T23:30:09.744Z,15.48
2023-02-13T23:32:39.484Z,14.60
2023-02-13T23:35:11.438Z,16.05
2023-02-13T23:37:41.036Z,15.73
2023-02-13T23:40:13.968Z,15.65
2023-02-13T23:42:44.926Z,15.72
2023-02-13T23:45:15.248Z,15.30
2023-02-13T23:47:45.388Z,15.05
2023-02-13T23:50:15.099Z,14.33
2023-02-13T23:52:45.484Z,15.18
2023-02-13T23:55:15.223Z,15.45
2023-02-13T23:57:47.014Z,15.28
